createdAt,value
2023-03-10T00:00:14.065Z,94192.97
2023-03-10T00:01:21.295Z,94188.75
2023-03-10T00:02:25.327Z,94188.16
2023-03-10T00:03:30.061Z,94183.56
2023-03-10T00:04:34.907Z,94182.50
2023-03-10T00:05:38.084Z,94180.50
2023-03-10T00:06:43.110Z,94184.72
2023-03-10T00:07:45.358Z,94184.97
2023-03-10T00:08:51.270Z,94171.56
2023-03-10T00:09:53.415Z,94169.91
2023-03-10T00:10:58.650Z,94181.06
2023-03-10T00:12:01.098Z,94159.44
2023-03-10T00:13:09.296Z,94161.56
2023-03-10T00:14:11.410Z,94160.75
2023-03-10T00:15:16.648Z,94148.72
2023-03-10T00:16:21.409Z,94158.97
2023-03-10T00:17:26.145Z,94167.56
2023-03-10T00:18:28.407Z,94162.50
2023-03-10T00:19:33.589Z,94162.13
2023-03-10T00:20:35.657Z,94159.31
2023-03-10T00:21:40.639Z,94160.97
2023-03-10T00:22:42.818Z,94154.59
2023-03-10T00:23:47.589Z,94162.94
2023-03-10T00:24:52.335Z,94156.03
2023-03-10T00:25:55.925Z,94150.84
2023-03-10T00:27:00.869Z,94151.28
2023-03-10T00:28:08.283Z,94150.38
2023-03-10T00:29:11.869Z,94147.22
2023-03-10T00:30:17.108Z,94157.56
2023-03-10T00:31:21.926Z,94142.47
2023-03-10T00:32:26.748Z,94147.22
2023-03-10T00:33:36.773Z,94148.28
2023-03-10T00:34:41.461Z,94141.41
2023-03-10T00:35:43.755Z,94134.84
2023-03-10T00:36:48.714Z,94137.19
2023-03-10T00:37:53.065Z,94124.09
2023-03-10T00:39:01.241Z,94132.00
2023-03-10T00:40:07.043Z,94134.84
2023-03-10T00:41:15.081Z,94127.56
2023-03-10T00:42:17.268Z,94126.38
2023-03-10T00:43:24.959Z,94118.16
2023-03-10T00:44:30.116Z,94127.38
2023-03-10T00:45:32.239Z,94125.13
2023-03-10T00:46:38.831Z,94125.94
2023-03-10T00:47:41.123Z,94125.38
2023-03-10T00:48:49.380Z,94125.25
2023-03-10T00:49:54.287Z,94114.88
2023-03-10T00:50:57.088Z,94123.84
2023-03-10T00:52:02.384Z,94117.50
2023-03-10T00:53:04.612Z,94110.91
2023-03-10T00:54:09.715Z,94098.69
2023-03-10T00:55:13.516Z,94111.41
2023-03-10T00:56:20.195Z,94096.22
2023-03-10T00:57:22.383Z,94093.63
2023-03-10T00:58:29.835Z,94095.97
2023-03-10T00:59:47.785Z,94087.63
2023-03-10T01:00:54.789Z,94088.47
2023-03-10T01:01:56.994Z,94082.72
2023-03-10T01:03:02.153Z,94081.19
2023-03-10T01:04:06.965Z,94084.81
2023-03-10T01:05:16.874Z,94083.19
2023-03-10T01:06:19.294Z,94080.84
2023-03-10T01:07:24.010Z,94082.00
2023-03-10T01:08:26.140Z,94081.28
2023-03-10T01:09:31.036Z,94074.72
2023-03-10T01:10:33.146Z,94075.69
2023-03-10T01:11:39.572Z,94067.69
2023-03-10T01:12:41.980Z,94059.53
2023-03-10T01:13:50.047Z,94056.38
2023-03-10T01:14:52.156Z,94056.13
2023-03-10T01:15:56.937Z,94050.25
2023-03-10T01:16:59.687Z,94054.84
2023-03-10T01:18:05.235Z,94048.06
2023-03-10T01:19:07.410Z,94049.59
2023-03-10T01:20:17.116Z,94057.09
2023-03-10T01:21:22.552Z,94051.47
2023-03-10T01:22:27.730Z,94040.88
2023-03-10T01:23:29.994Z,94037.59
2023-03-10T01:24:34.889Z,94036.19
2023-03-10T01:25:37.040Z,94027.97
2023-03-10T01:26:41.742Z,94032.09
2023-03-10T01:27:44.080Z,94022.91
2023-03-10T01:28:52.809Z,94028.44
2023-03-10T01:29:54.922Z,94029.97
2023-03-10T01:30:59.706Z,94029.03
2023-03-10T01:32:01.873Z,94023.16
2023-03-10T01:33:07.010Z,94013.50
2023-03-10T01:34:09.256Z,94017.88
2023-03-10T01:35:15.112Z,94009.31
2023-03-10T01:36:19.509Z,94012.69
2023-03-10T01:37:24.819Z,94011.06
2023-03-10T01:38:26.979Z,94022.47
2023-03-10T01:39:33.724Z,94021.41
2023-03-10T01:40:36.223Z,94016.00
2023-03-10T01:41:42.228Z,94017.06
2023-03-10T01:42:44.441Z,94009.66
2023-03-10T01:43:54.405Z,94008.84
2023-03-10T01:45:13.537Z,94015.88
2023-03-10T01:46:36.288Z,94011.28
2023-03-10T01:47:41.141Z,94001.19
2023-03-10T01:48:43.251Z,94014.47
2023-03-10T01:49:48.959Z,94013.66
2023-03-10T01:50:56.137Z,94012.00
2023-03-10T01:52:05.704Z,94007.41
2023-03-10T01:53:08.028Z,94001.66
2023-03-10T01:54:17.541Z,93998.50
2023-03-10T01:55:25.682Z,93993.81
2023-03-10T01:56:30.963Z,93990.63
2023-03-10T01:57:40.118Z,93996.88
2023-03-10T01:58:46.229Z,93993.69
2023-03-10T01:59:54.153Z,93982.06
2023-03-10T02:00:56.493Z,93983.13
2023-03-10T02:02:05.140Z,93989.13
2023-03-10T02:03:13.066Z,93986.88
2023-03-10T02:04:23.646Z,93988.16
2023-03-10T02:05:28.549Z,93982.19
2023-03-10T02:06:33.974Z,93977.03
2023-03-10T02:07:42.492Z,93980.44
2023-03-10T02:08:49.983Z,93982.06
2023-03-10T02:09:55.909Z,93980.09
2023-03-10T02:10:59.770Z,93985.69
2023-03-10T02:12:08.047Z,93981.56
2023-03-10T02:13:10.291Z,93975.50
2023-03-10T02:14:17.704Z,93976.31
2023-03-10T02:15:22.837Z,93977.00
2023-03-10T02:16:29.862Z,93980.66
2023-03-10T02:17:32.332Z,93985.69
2023-03-10T02:18:37.920Z,93982.16
2023-03-10T02:20:02.701Z,93982.41
2023-03-10T02:21:18.249Z,93988.97
2023-03-10T02:22:20.987Z,93988.16
2023-03-10T02:23:30.728Z,93983.00
2023-03-10T02:24:47.349Z,93988.25
2023-03-10T02:25:54.927Z,93992.03
2023-03-10T02:27:04.846Z,93972.72
2023-03-10T02:28:09.924Z,93973.34
2023-03-10T02:29:25.345Z,93981.44
2023-03-10T02:30:32.304Z,93982.88
2023-03-10T02:31:37.184Z,93984.97
2023-03-10T02:32:43.186Z,93975.09
2023-03-10T02:33:49.761Z,93978.59
2023-03-10T02:34:51.798Z,93979.53
2023-03-10T02:35:56.583Z,93972.34
2023-03-10T02:36:58.716Z,93974.47
2023-03-10T02:38:03.461Z,93978.59
2023-03-10T02:39:05.813Z,93973.19
2023-03-10T02:40:34.192Z,93965.41
2023-03-10T02:41:39.136Z,93966.84
2023-03-10T02:42:44.413Z,93975.72
2023-03-10T02:43:49.727Z,93966.19
2023-03-10T02:44:56.376Z,93979.59
2023-03-10T02:46:06.059Z,93971.38
2023-03-10T02:47:11.226Z,93970.31
2023-03-10T02:48:18.909Z,93969.63
2023-03-10T02:49:25.307Z,93972.56
2023-03-10T02:50:33.010Z,93974.66
2023-03-10T02:51:38.468Z,93971.50
2023-03-10T02:52:48.586Z,93965.13
2023-03-10T02:53:51.032Z,93977.81
2023-03-10T02:54:55.803Z,93970.66
2023-03-10T02:56:00.187Z,93963.00
2023-03-10T02:57:05.008Z,93972.19
2023-03-10T02:58:07.242Z,93987.47
2023-03-10T02:59:16.523Z,93961.34
2023-03-10T03:00:18.918Z,93972.63
2023-03-10T03:01:26.472Z,93966.50
2023-03-10T03:02:30.799Z,93962.66
2023-03-10T03:03:37.190Z,93969.59
2023-03-10T03:04:39.365Z,93966.31
2023-03-10T03:05:44.552Z,93958.78
2023-03-10T03:06:47.399Z,93975.13
2023-03-10T03:07:52.302Z,93963.25
2023-03-10T03:08:57.172Z,93968.44
2023-03-10T03:09:59.386Z,93964.91
2023-03-10T03:11:04.460Z,93965.84
2023-03-10T03:12:07.933Z,93967.97
2023-03-10T03:13:12.907Z,93962.13
2023-03-10T03:14:20.247Z,93972.22
2023-03-10T03:15:23.128Z,93964.72
2023-03-10T03:16:28.055Z,93960.81
2023-03-10T03:17:30.194Z,93971.28
2023-03-10T03:18:34.961Z,93966.59
2023-03-10T03:19:37.064Z,93961.53
2023-03-10T03:20:43.395Z,93958.84
2023-03-10T03:21:50.378Z,93959.09
2023-03-10T03:22:57.463Z,93964.50
2023-03-10T03:23:59.808Z,93962.59
2023-03-10T03:25:04.651Z,93955.91
2023-03-10T03:26:17.987Z,93950.63
2023-03-10T03:27:20.108Z,93945.44
2023-03-10T03:28:25.134Z,93957.66
2023-03-10T03:29:29.770Z,93944.28
2023-03-10T03:30:35.711Z,93946.66
2023-03-10T03:31:38.865Z,93949.44
2023-03-10T03:32:43.745Z,93948.06
2023-03-10T03:33:46.683Z,93950.88
2023-03-10T03:34:51.688Z,93960.03
2023-03-10T03:35:53.847Z,93949.00
2023-03-10T03:36:58.643Z,93955.09
2023-03-10T03:38:01.346Z,93969.00
2023-03-10T03:39:06.576Z,93952.28
2023-03-10T03:40:13.049Z,93944.66
2023-03-10T03:41:17.687Z,93952.97
2023-03-10T03:42:20.420Z,93950.88
2023-03-10T03:43:27.674Z,93953.44
2023-03-10T03:44:32.389Z,93961.44
2023-03-10T03:45:37.284Z,93948.88
2023-03-10T03:46:41.376Z,93952.75
2023-03-10T03:47:46.676Z,93953.47
2023-03-10T03:48:48.812Z,93961.09
2023-03-10T03:49:53.638Z,93955.09
2023-03-10T03:50:55.799Z,93963.81
2023-03-10T03:52:00.787Z,93944.91
2023-03-10T03:53:02.962Z,93955.09
2023-03-10T03:54:07.681Z,93950.88
2023-03-10T03:55:10.927Z,93960.28
2023-03-10T03:56:15.607Z,93957.69
2023-03-10T03:57:17.725Z,93958.75
2023-03-10T03:58:22.771Z,93941.50
2023-03-10T03:59:25.346Z,93943.13
2023-03-10T04:00:34.822Z,93958.66
2023-03-10T04:01:37.016Z,93951.25
2023-03-10T04:02:41.854Z,93949.38
2023-03-10T04:03:44.039Z,93937.63
2023-03-10T04:04:49.099Z,93938.69
2023-03-10T04:05:51.202Z,93936.72
2023-03-10T04:06:56.491Z,93949.75
2023-03-10T04:07:58.658Z,93944.31
2023-03-10T04:09:03.602Z,93946.47
2023-03-10T04:10:07.060Z,93942.22
2023-03-10T04:11:11.964Z,93934.47
2023-03-10T04:12:13.974Z,93926.72
2023-03-10T04:13:18.884Z,93936.59
2023-03-10T04:14:21.142Z,93923.25
2023-03-10T04:15:26.072Z,93937.06
2023-03-10T04:16:30.789Z,93934.25
2023-03-10T04:17:35.682Z,93927.56
2023-03-10T04:18:37.887Z,93926.16
2023-03-10T04:19:43.844Z,93928.75
2023-03-10T04:20:46.795Z,93935.56
2023-03-10T04:21:51.612Z,93933.91
2023-03-10T04:22:57.301Z,93935.69
2023-03-10T04:23:59.389Z,93925.59
2023-03-10T04:25:04.420Z,93937.56
2023-03-10T04:26:08.102Z,93924.88
2023-03-10T04:27:13.139Z,93926.41
2023-03-10T04:28:18.176Z,93914.06
2023-03-10T04:29:24.578Z,93929.78
2023-03-10T04:30:29.961Z,93921.09
2023-03-10T04:31:34.862Z,93919.56
2023-03-10T04:32:39.618Z,93921.81
2023-03-10T04:33:42.130Z,93925.13
2023-03-10T04:34:47.486Z,93924.16
2023-03-10T04:35:51.811Z,93921.00
2023-03-10T04:36:56.458Z,93925.59
2023-03-10T04:37:58.964Z,93916.09
2023-03-10T04:39:05.240Z,93929.81
2023-03-10T04:40:11.778Z,93920.88
2023-03-10T04:41:17.760Z,93933.13
2023-03-10T04:42:23.015Z,93928.06
2023-03-10T04:43:25.565Z,93917.13
2023-03-10T04:44:31.610Z,93918.09
2023-03-10T04:45:33.813Z,93912.06
2023-03-10T04:46:41.461Z,93923.59
2023-03-10T04:47:43.851Z,93923.13
2023-03-10T04:48:48.643Z,93919.50
2023-03-10T04:49:50.739Z,93915.97
2023-03-10T04:50:59.220Z,93916.56
2023-03-10T04:52:01.283Z,93912.94
2023-03-10T04:53:05.949Z,93908.44
2023-03-10T04:54:08.346Z,93903.28
2023-03-10T04:55:13.835Z,93913.84
2023-03-10T04:56:16.056Z,93910.13
2023-03-10T04:57:20.919Z,93921.84
2023-03-10T04:58:23.467Z,93912.81
2023-03-10T04:59:28.277Z,93910.81
2023-03-10T05:00:30.611Z,93914.34
2023-03-10T05:01:35.416Z,93918.69
2023-03-10T05:02:40.525Z,93919.25
2023-03-10T05:03:45.546Z,93924.53
2023-03-10T05:04:47.727Z,93922.81
2023-03-10T05:05:53.090Z,93915.88
2023-03-10T05:06:55.228Z,93910.94
2023-03-10T05:08:01.369Z,93909.03
2023-03-10T05:09:06.028Z,93918.56
2023-03-10T05:10:11.928Z,93916.59
2023-03-10T05:11:14.860Z,93914.34
2023-03-10T05:12:19.660Z,93916.22
2023-03-10T05:13:21.767Z,93911.28
2023-03-10T05:14:26.655Z,93913.53
2023-03-10T05:15:28.926Z,93913.63
2023-03-10T05:16:33.786Z,93908.69
2023-03-10T05:17:35.962Z,93917.75
2023-03-10T05:18:43.769Z,93905.66
2023-03-10T05:19:45.962Z,93904.72
2023-03-10T05:20:56.932Z,93906.84
2023-03-10T05:21:58.962Z,93904.34
2023-03-10T05:23:05.867Z,93908.84
2023-03-10T05:24:08.569Z,93910.22
2023-03-10T05:25:15.359Z,93908.94
2023-03-10T05:26:17.736Z,93909.19
2023-03-10T05:27:22.695Z,93904.00
2023-03-10T05:28:25.241Z,93909.19
2023-03-10T05:29:30.374Z,93908.00
2023-03-10T05:30:32.391Z,93888.53
2023-03-10T05:31:40.631Z,93876.78
2023-03-10T05:32:43.277Z,93878.69
2023-03-10T05:33:50.935Z,93882.66
2023-03-10T05:34:55.916Z,93874.66
2023-03-10T05:35:58.164Z,93881.25
2023-03-10T05:37:02.997Z,93882.06
2023-03-10T05:38:05.172Z,93881.03
2023-03-10T05:39:11.141Z,93876.31
2023-03-10T05:40:15.720Z,93875.47
2023-03-10T05:41:25.453Z,93876.56
2023-03-10T05:42:27.543Z,93875.13
2023-03-10T05:43:32.555Z,93878.91
2023-03-10T05:44:34.721Z,93869.97
2023-03-10T05:45:39.664Z,93871.97
2023-03-10T05:46:41.940Z,93862.69
2023-03-10T05:47:47.142Z,93869.38
2023-03-10T05:48:52.141Z,93864.09
2023-03-10T05:49:59.856Z,93856.84
2023-03-10T05:51:04.035Z,93859.41
2023-03-10T05:52:09.592Z,93873.13
2023-03-10T05:53:11.951Z,93863.75
2023-03-10T05:54:16.867Z,93865.53
2023-03-10T05:55:20.243Z,93869.03
2023-03-10T05:56:24.965Z,93859.41
2023-03-10T05:57:28.837Z,93869.88
2023-03-10T05:58:33.587Z,93865.16
2023-03-10T05:59:35.714Z,93863.75
2023-03-10T06:00:40.835Z,93858.25
2023-03-10T06:01:43.204Z,93860.22
2023-03-10T06:02:48.172Z,93860.59
2023-03-10T06:03:53.161Z,93860.38
2023-03-10T06:04:58.376Z,93862.56
2023-03-10T06:06:03.715Z,93856.59
2023-03-10T06:07:06.166Z,93860.59
2023-03-10T06:08:11.088Z,93856.59
2023-03-10T06:09:13.270Z,93855.22
2023-03-10T06:10:18.095Z,93860.59
2023-03-10T06:11:22.813Z,93861.91
2023-03-10T06:12:25.057Z,93853.91
2023-03-10T06:13:30.164Z,93851.91
2023-03-10T06:14:32.286Z,93856.75
2023-03-10T06:15:37.274Z,93852.97
2023-03-10T06:16:39.503Z,93850.53
2023-03-10T06:17:44.544Z,93849.81
2023-03-10T06:18:49.365Z,93848.75
2023-03-10T06:19:54.261Z,93842.53
2023-03-10T06:21:00.005Z,93855.22
2023-03-10T06:22:02.120Z,93843.94
2023-03-10T06:23:07.089Z,93839.50
2023-03-10T06:24:11.968Z,93840.19
2023-03-10T06:25:14.624Z,93838.28
2023-03-10T06:26:20.244Z,93837.63
2023-03-10T06:27:22.368Z,93836.91
2023-03-10T06:28:33.344Z,93834.56
2023-03-10T06:29:35.434Z,93832.00
2023-03-10T06:30:40.773Z,93834.09
2023-03-10T06:31:43.042Z,93836.19
2023-03-10T06:32:48.077Z,93827.16
2023-03-10T06:33:53.688Z,93839.50
2023-03-10T06:35:00.576Z,93830.47
2023-03-10T06:36:06.127Z,93840.06
2023-03-10T06:37:08.474Z,93837.63
2023-03-10T06:38:14.352Z,93831.75
2023-03-10T06:39:19.281Z,93833.50
2023-03-10T06:40:21.660Z,93823.53
2023-03-10T06:41:28.122Z,93823.78
2023-03-10T06:42:32.515Z,93824.59
2023-03-10T06:43:39.215Z,93823.19
2023-03-10T06:44:42.259Z,93828.59
2023-03-10T06:45:48.560Z,93830.47
2023-03-10T06:46:50.756Z,93835.47
2023-03-10T06:47:56.227Z,93831.97
2023-03-10T06:48:58.403Z,93824.47
2023-03-10T06:50:07.435Z,93828.69
2023-03-10T06:51:13.473Z,93823.06
2023-03-10T06:52:18.810Z,93818.72
2023-03-10T06:53:25.264Z,93822.81
2023-03-10T06:54:27.406Z,93812.03
2023-03-10T06:55:33.958Z,93820.94
2023-03-10T06:56:42.206Z,93810.53
2023-03-10T06:57:49.096Z,93800.09
2023-03-10T06:58:55.174Z,93812.63
2023-03-10T07:00:03.073Z,93807.00
2023-03-10T07:01:13.565Z,93807.47
2023-03-10T07:02:21.782Z,93808.16
2023-03-10T07:03:29.367Z,93813.94
2023-03-10T07:04:31.573Z,93813.94
2023-03-10T07:05:39.462Z,93803.72
2023-03-10T07:06:44.778Z,93804.06
2023-03-10T07:07:47.270Z,93789.75
2023-03-10T07:08:53.485Z,93797.94
2023-03-10T07:09:59.101Z,93796.88
2023-03-10T07:11:01.425Z,93806.38
2023-03-10T07:12:06.586Z,93804.28
2023-03-10T07:13:09.703Z,93799.09
2023-03-10T07:14:14.960Z,93801.69
2023-03-10T07:15:17.327Z,93788.53
2023-03-10T07:16:22.712Z,93789.91
2023-03-10T07:17:25.530Z,93796.16
2023-03-10T07:18:30.374Z,93807.97
2023-03-10T07:19:35.201Z,93804.69
2023-03-10T07:20:42.260Z,93804.22
2023-03-10T07:21:47.287Z,93802.28
2023-03-10T07:22:52.318Z,93804.72
2023-03-10T07:24:01.130Z,93803.75
2023-03-10T07:25:06.599Z,93798.47
2023-03-10T07:26:09.246Z,93799.84
2023-03-10T07:27:19.341Z,93801.53
2023-03-10T07:28:21.941Z,93795.84
2023-03-10T07:29:26.761Z,93796.97
2023-03-10T07:30:29.297Z,93795.34
2023-03-10T07:31:34.915Z,93792.50
2023-03-10T07:32:37.167Z,93790.28
2023-03-10T07:33:42.273Z,93787.44
2023-03-10T07:34:44.555Z,93792.28
2023-03-10T07:35:53.092Z,93789.28
2023-03-10T07:37:02.260Z,93787.66
2023-03-10T07:38:08.355Z,93793.41
2023-03-10T07:39:13.643Z,93797.56
2023-03-10T07:40:16.121Z,93796.50
2023-03-10T07:41:23.289Z,93796.72
2023-03-10T07:42:28.636Z,93783.69
2023-03-10T07:43:31.472Z,93785.97
2023-03-10T07:44:36.386Z,93784.19
2023-03-10T07:45:39.058Z,93790.94
2023-03-10T07:46:44.119Z,93801.22
2023-03-10T07:47:46.569Z,93795.22
2023-03-10T07:48:52.939Z,93805.88
2023-03-10T07:49:55.416Z,93796.38
2023-03-10T07:51:03.770Z,93810.03
2023-03-10T07:52:09.096Z,93814.03
2023-03-10T07:53:11.220Z,93813.28
2023-03-10T07:54:16.447Z,93814.91
2023-03-10T07:55:19.205Z,93816.47
2023-03-10T07:56:24.043Z,93812.97
2023-03-10T07:57:26.215Z,93816.56
2023-03-10T07:58:31.245Z,93810.50
2023-03-10T07:59:33.466Z,93821.59
2023-03-10T08:00:38.695Z,93810.59
2023-03-10T08:01:41.319Z,93812.44
2023-03-10T08:02:46.442Z,93808.97
2023-03-10T08:03:49.380Z,93812.06
2023-03-10T08:04:55.367Z,93803.34
2023-03-10T08:06:05.747Z,93803.94
2023-03-10T08:07:08.689Z,93802.47
2023-03-10T08:08:13.929Z,93802.66
2023-03-10T08:09:18.985Z,93800.00
2023-03-10T08:10:21.385Z,93798.56
2023-03-10T08:11:27.242Z,93801.03
2023-03-10T08:12:33.222Z,93800.53
2023-03-10T08:13:40.839Z,93806.78
2023-03-10T08:14:45.653Z,93811.00
2023-03-10T08:15:47.787Z,93806.72
2023-03-10T08:16:52.822Z,93814.28
2023-03-10T08:17:57.730Z,93801.97
2023-03-10T08:19:00.636Z,93814.91
2023-03-10T08:20:06.831Z,93807.50
2023-03-10T08:21:14.562Z,93803.56
2023-03-10T08:22:16.809Z,93806.69
2023-03-10T08:23:22.229Z,93812.44
2023-03-10T08:24:24.446Z,93805.53
2023-03-10T08:25:29.653Z,93804.94
2023-03-10T08:26:34.661Z,93805.19
2023-03-10T08:27:36.975Z,93809.44
2023-03-10T08:28:42.302Z,93807.16
2023-03-10T08:29:44.474Z,93807.59
2023-03-10T08:31:03.779Z,93807.72
2023-03-10T08:32:11.378Z,93798.19
2023-03-10T08:33:13.582Z,93800.09
2023-03-10T08:34:19.955Z,93798.13
2023-03-10T08:35:22.130Z,93797.63
2023-03-10T08:36:32.579Z,93793.91
2023-03-10T08:37:37.751Z,93808.50
2023-03-10T08:38:40.222Z,93794.66
2023-03-10T08:39:45.596Z,93799.94
2023-03-10T08:40:47.777Z,93804.00
2023-03-10T08:41:52.975Z,93801.09
2023-03-10T08:42:55.161Z,93801.97
2023-03-10T08:44:02.478Z,93805.34
2023-03-10T08:45:09.070Z,93813.13
2023-03-10T08:46:13.709Z,93811.00
2023-03-10T08:47:18.570Z,93822.47
2023-03-10T08:48:22.697Z,93826.84
2023-03-10T08:49:27.662Z,93836.19
2023-03-10T08:50:29.980Z,93844.50
2023-03-10T08:51:38.076Z,93855.56
2023-03-10T08:52:40.727Z,93877.34
2023-03-10T08:53:48.028Z,93872.75
2023-03-10T08:54:52.939Z,93859.16
2023-03-10T08:55:55.798Z,93847.47
2023-03-10T08:57:03.891Z,93869.28
2023-03-10T08:58:06.586Z,93864.31
2023-03-10T08:59:12.036Z,93860.31
2023-03-10T09:00:17.370Z,93857.72
2023-03-10T09:01:23.376Z,93859.66
2023-03-10T09:02:26.855Z,93858.34
2023-03-10T09:03:32.225Z,93862.78
2023-03-10T09:04:37.675Z,93857.63
2023-03-10T09:05:40.921Z,93872.44
2023-03-10T09:06:48.901Z,93875.81
2023-03-10T09:07:52.194Z,93858.22
2023-03-10T09:08:57.859Z,93872.38
2023-03-10T09:10:00.439Z,93879.06
2023-03-10T09:11:05.725Z,93885.16
2023-03-10T09:12:11.643Z,93900.84
2023-03-10T09:13:15.610Z,93880.31
2023-03-10T09:14:20.821Z,93868.25
2023-03-10T09:15:23.781Z,93877.88
2023-03-10T09:16:30.032Z,93890.41
2023-03-10T09:17:35.262Z,93898.97
2023-03-10T09:18:37.584Z,93910.69
2023-03-10T09:19:42.585Z,93913.59
2023-03-10T09:20:49.214Z,93909.91
2023-03-10T09:22:01.750Z,93921.59
2023-03-10T09:23:08.572Z,93917.16
2023-03-10T09:24:19.852Z,93896.34
2023-03-10T09:25:25.688Z,93897.03
2023-03-10T09:26:27.758Z,93907.56
2023-03-10T09:27:32.466Z,93901.28
2023-03-10T09:28:34.543Z,93889.94
2023-03-10T09:29:43.688Z,93899.59
2023-03-10T09:30:46.001Z,93892.94
2023-03-10T09:31:50.719Z,93900.94
2023-03-10T09:32:53.419Z,93900.50
2023-03-10T09:33:58.141Z,93899.09
2023-03-10T09:35:00.522Z,93898.09
2023-03-10T09:36:07.020Z,93901.25
2023-03-10T09:37:15.247Z,93900.75
2023-03-10T09:38:17.860Z,93890.94
2023-03-10T09:39:22.536Z,93886.41
2023-03-10T09:40:25.290Z,93881.59
2023-03-10T09:41:56.203Z,93877.00
2023-03-10T09:43:04.505Z,93881.41
2023-03-10T09:44:23.039Z,93883.47
2023-03-10T09:45:42.437Z,93869.63
2023-03-10T09:46:52.675Z,93875.09
2023-03-10T09:48:08.954Z,93869.06
2023-03-10T09:49:18.536Z,93876.09
2023-03-10T09:50:35.509Z,93872.25
2023-03-10T09:51:44.968Z,93875.66
2023-03-10T09:52:58.826Z,93877.97
2023-03-10T09:54:20.185Z,93885.53
2023-03-10T09:55:23.900Z,93883.38
2023-03-10T09:56:31.776Z,93881.47
2023-03-10T09:57:35.060Z,93881.06
2023-03-10T09:58:42.434Z,93876.44
2023-03-10T09:59:47.926Z,93870.47
2023-03-10T10:00:52.564Z,93880.44
2023-03-10T10:01:55.329Z,93868.16
2023-03-10T10:03:08.883Z,93872.00
2023-03-10T10:04:16.333Z,93862.03
2023-03-10T10:05:24.989Z,93862.19
2023-03-10T10:06:33.180Z,93859.44
2023-03-10T10:07:46.570Z,93870.50
2023-03-10T10:09:04.649Z,93865.31
2023-03-10T10:10:19.080Z,93858.22
2023-03-10T10:11:23.882Z,93862.44
2023-03-10T10:12:26.929Z,93853.44
2023-03-10T10:13:35.410Z,93860.41
2023-03-10T10:14:42.580Z,93856.44
2023-03-10T10:16:18.392Z,93854.88
2023-03-10T10:17:41.746Z,93859.97
2023-03-10T10:18:58.975Z,93861.63
2023-03-10T10:20:07.197Z,93856.41
2023-03-10T10:21:16.664Z,93865.69
2023-03-10T10:22:34.686Z,93869.78
2023-03-10T10:23:43.795Z,93865.41
2023-03-10T10:25:01.964Z,93868.13
2023-03-10T10:26:13.912Z,93854.84
2023-03-10T10:27:19.091Z,93860.50
2023-03-10T10:28:29.586Z,93860.75
2023-03-10T10:29:37.580Z,93866.09
2023-03-10T10:30:41.116Z,93860.66
2023-03-10T10:31:45.877Z,93853.44
2023-03-10T10:32:57.210Z,93854.94
2023-03-10T10:34:04.000Z,93854.13
2023-03-10T10:35:14.937Z,93855.22
2023-03-10T10:36:20.803Z,93861.75
2023-03-10T10:37:35.363Z,93860.16
2023-03-10T10:38:39.364Z,93862.44
2023-03-10T10:39:46.113Z,93846.25
2023-03-10T10:40:59.642Z,93860.72
2023-03-10T10:42:20.381Z,93859.56
2023-03-10T10:43:23.270Z,93850.25
2023-03-10T10:44:27.898Z,93852.25
2023-03-10T10:45:33.847Z,93849.47
2023-03-10T10:46:38.596Z,93856.63
2023-03-10T10:47:49.898Z,93854.59
2023-03-10T10:49:04.313Z,93850.78
2023-03-10T10:50:21.013Z,93845.47
2023-03-10T10:51:29.071Z,93862.25
2023-03-10T10:52:33.813Z,93860.69
2023-03-10T10:53:43.347Z,93868.16
2023-03-10T10:54:57.011Z,93856.63
2023-03-10T10:56:04.796Z,93855.91
2023-03-10T10:57:20.524Z,93858.59
2023-03-10T10:58:29.028Z,93859.66
2023-03-10T10:59:34.931Z,93843.13
2023-03-10T11:00:38.497Z,93854.09
2023-03-10T11:01:52.660Z,93852.75
2023-03-10T11:02:58.218Z,93857.41
2023-03-10T11:04:08.953Z,93849.91
2023-03-10T11:05:18.128Z,93848.59
2023-03-10T11:06:27.193Z,93834.88
2023-03-10T11:07:32.416Z,93844.50
2023-03-10T11:08:37.669Z,93844.13
2023-03-10T11:09:42.548Z,93844.66
2023-03-10T11:10:47.220Z,93847.28
2023-03-10T11:12:08.733Z,93838.56
2023-03-10T11:13:19.445Z,93837.91
2023-03-10T11:14:35.304Z,93846.09
2023-03-10T11:15:47.562Z,93842.44
2023-03-10T11:17:00.137Z,93839.50
2023-03-10T11:18:09.537Z,93835.63
2023-03-10T11:19:22.427Z,93838.78
2023-03-10T11:20:33.038Z,93841.16
2023-03-10T11:21:42.095Z,93853.84
2023-03-10T11:22:50.561Z,93844.94
2023-03-10T11:24:02.942Z,93846.38
2023-03-10T11:25:24.599Z,93834.97
2023-03-10T11:26:40.039Z,93849.31
2023-03-10T11:27:54.916Z,93849.88
2023-03-10T11:29:07.630Z,93849.97
2023-03-10T11:30:20.072Z,93842.38
2023-03-10T11:31:37.303Z,93854.34
2023-03-10T11:32:54.625Z,93853.28
2023-03-10T11:34:07.407Z,93846.84
2023-03-10T11:35:24.403Z,93821.19
2023-03-10T11:36:49.588Z,93865.13
2023-03-10T11:38:09.165Z,93848.91
2023-03-10T11:39:19.589Z,93847.59
2023-03-10T11:40:40.214Z,93844.66
2023-03-10T11:41:51.712Z,93843.69
2023-03-10T11:43:02.994Z,93851.91
2023-03-10T11:44:17.415Z,93842.47
2023-03-10T11:45:29.167Z,93851.34
2023-03-10T11:46:39.928Z,93835.41
2023-03-10T11:47:51.174Z,93840.16
2023-03-10T11:49:04.117Z,93844.09
2023-03-10T11:50:15.713Z,93846.19
2023-03-10T11:51:24.160Z,93844.06
2023-03-10T11:52:27.603Z,93833.97
2023-03-10T11:53:40.088Z,93840.91
2023-03-10T11:54:49.396Z,93846.19
2023-03-10T11:55:52.916Z,93843.13
2023-03-10T11:56:58.943Z,93855.81
2023-03-10T11:58:08.558Z,93853.94
2023-03-10T11:59:18.729Z,93841.59
2023-03-10T12:00:28.688Z,93852.72
2023-03-10T12:01:39.842Z,93847.94
2023-03-10T12:02:47.708Z,93847.03
2023-03-10T12:04:00.450Z,93853.41
2023-03-10T12:05:09.662Z,93849.41
2023-03-10T12:06:17.672Z,93861.63
2023-03-10T12:07:28.286Z,93855.44
2023-03-10T12:08:33.463Z,93864.75
2023-03-10T12:09:43.026Z,93855.34
2023-03-10T12:10:45.218Z,93848.75
2023-03-10T12:11:56.199Z,93850.66
2023-03-10T12:12:59.351Z,93844.06
2023-03-10T12:14:06.640Z,93854.66
2023-03-10T12:15:23.138Z,93861.22
2023-03-10T12:16:27.832Z,93857.34
2023-03-10T12:17:32.764Z,93850.03
2023-03-10T12:18:34.887Z,93852.28
2023-03-10T12:20:12.208Z,93846.53
2023-03-10T12:21:22.712Z,93852.63
2023-03-10T12:22:36.265Z,93842.75
2023-03-10T12:23:43.674Z,93858.13
2023-03-10T12:24:50.928Z,93850.47
2023-03-10T12:25:53.395Z,93837.19
2023-03-10T12:27:08.017Z,93830.88
2023-03-10T12:28:24.751Z,93844.38
2023-03-10T12:29:43.890Z,93845.00
2023-03-10T12:30:47.056Z,93837.34
2023-03-10T12:31:54.064Z,93831.28
2023-03-10T12:32:58.895Z,93846.66
2023-03-10T12:34:17.323Z,93833.00
2023-03-10T12:40:00.347Z,93850.66
2023-03-10T12:41:03.360Z,93846.16
2023-03-10T12:42:28.526Z,93847.81
2023-03-10T12:44:05.754Z,93850.28
2023-03-10T12:45:25.614Z,93859.69
2023-03-10T12:46:39.578Z,93859.09
2023-03-10T12:48:01.756Z,93841.88
2023-03-10T12:49:16.852Z,93846.66
2023-03-10T12:50:31.750Z,93856.28
2023-03-10T12:51:41.236Z,93834.56
2023-03-10T12:52:53.462Z,93845.13
2023-03-10T12:54:01.192Z,93845.53
2023-03-10T12:55:18.066Z,93846.19
2023-03-10T12:56:31.475Z,93851.13
2023-03-10T12:57:41.827Z,93846.91
2023-03-10T12:58:47.557Z,93840.78
2023-03-10T13:00:01.354Z,93841.53
2023-03-10T13:01:12.821Z,93838.00
2023-03-10T13:02:24.350Z,93834.44
2023-03-10T13:03:35.590Z,93833.75
2023-03-10T13:04:38.221Z,93833.66
2023-03-10T13:05:45.442Z,93839.41